sensor_id;sensor_type;location;lat;lon;timestamp;P1;durP1;ratioP1;P2;durP2;ratioP2
34144;SDS011;69555;53.014;8.886;2024-01-30T00:00:14;23.00;;;14.68;;
34144;SDS011;69555;53.014;8.886;2024-01-30T00:02:41;23.75;;;14.48;;
34144;SDS011;69555;53.014;8.886;2024-01-30T00:05:09;21.15;;;14.10;;
34144;SDS011;69555;53.014;8.886;2024-01-30T00:07:37;21.70;;;13.68;;
34144;SDS011;69555;53.014;8.886;2024-01-30T00:10:03;28.17;;;15.57;;
34144;SDS011;69555;53.014;8.886;2024-01-30T00:12:31;22.50;;;13.70;;
34144;SDS011;69555;53.014;8.886;2024-01-30T00:14:57;21.00;;;13.30;;
34144;SDS011;69555;53.014;8.886;2024-01-30T00:17:23;35.03;;;16.45;;
34144;SDS011;69555;53.014;8.886;2024-01-30T00:19:50;20.25;;;12.65;;
34144;SDS011;69555;53.014;8.886;2024-01-30T00:22:15;26.10;;;13.63;;
34144;SDS011;69555;53.014;8.886;2024-01-30T00:24:41;23.30;;;14.23;;
34144;SDS011;69555;53.014;8.886;2024-01-30T00:27:06;22.63;;;14.27;;
34144;SDS011;69555;53.014;8.886;2024-01-30T00:29:32;22.35;;;14.52;;
34144;SDS011;69555;53.014;8.886;2024-01-30T00:31:58;29.50;;;15.60;;
34144;SDS011;69555;53.014;8.886;2024-01-30T00:34:24;22.67;;;13.77;;
34144;SDS011;69555;53.014;8.886;2024-01-30T00:36:50;26.73;;;14.15;;
34144;SDS011;69555;53.014;8.886;2024-01-30T00:39:15;22.67;;;13.50;;
34144;SDS011;69555;53.014;8.886;2024-01-30T00:41:41;22.50;;;13.02;;
34144;SDS011;69555;53.014;8.886;2024-01-30T00:44:06;25.90;;;12.95;;
34144;SDS011;69555;53.014;8.886;2024-01-30T00:46:32;25.63;;;14.27;;
34144;SDS011;69555;53.014;8.886;2024-01-30T00:48:58;28.17;;;15.32;;
34144;SDS011;69555;53.014;8.886;2024-01-30T00:51:24;24.15;;;14.95;;
34144;SDS011;69555;53.014;8.886;2024-01-30T00:53:49;27.75;;;13.52;;
34144;SDS011;69555;53.014;8.886;2024-01-30T00:56:15;22.58;;;13.68;;
34144;SDS011;69555;53.014;8.886;2024-01-30T00:58:43;24.52;;;14.55;;
34144;SDS011;69555;53.014;8.886;2024-01-30T01:01:08;20.10;;;12.85;;
34144;SDS011;69555;53.014;8.886;2024-01-30T01:03:34;24.70;;;14.05;;
34144;SDS011;69555;53.014;8.886;2024-01-30T01:05:59;24.50;;;13.75;;
34144;SDS011;69555;53.014;8.886;2024-01-30T01:08:25;28.00;;;15.10;;
34144;SDS011;69555;53.014;8.886;2024-01-30T01:10:50;20.77;;;12.82;;
34144;SDS011;69555;53.014;8.886;2024-01-30T01:13:15;22.50;;;12.80;;
34144;SDS011;69555;53.014;8.886;2024-01-30T01:15:42;22.55;;;13.57;;
34144;SDS011;69555;53.014;8.886;2024-01-30T01:18:09;23.38;;;14.25;;
34144;SDS011;69555;53.014;8.886;2024-01-30T01:20:34;24.58;;;13.80;;
34144;SDS011;69555;53.014;8.886;2024-01-30T01:22:59;20.88;;;13.32;;
34144;SDS011;69555;53.014;8.886;2024-01-30T01:25:25;21.45;;;13.50;;
34144;SDS011;69555;53.014;8.886;2024-01-30T01:27:50;26.10;;;14.80;;
34144;SDS011;69555;53.014;8.886;2024-01-30T01:30:18;24.35;;;13.73;;
34144;SDS011;69555;53.014;8.886;2024-01-30T01:32:49;23.30;;;14.80;;
34144;SDS011;69555;53.014;8.886;2024-01-30T01:35:24;20.60;;;13.52;;
34144;SDS011;69555;53.014;8.886;2024-01-30T01:37:50;23.63;;;14.38;;
34144;SDS011;69555;53.014;8.886;2024-01-30T01:40:24;21.88;;;13.77;;
34144;SDS011;69555;53.014;8.886;2024-01-30T01:42:51;28.75;;;15.77;;
34144;SDS011;69555;53.014;8.886;2024-01-30T01:45:17;21.20;;;13.13;;
34144;SDS011;69555;53.014;8.886;2024-01-30T01:47:43;24.08;;;14.77;;
34144;SDS011;69555;53.014;8.886;2024-01-30T01:50:11;23.83;;;14.52;;
34144;SDS011;69555;53.014;8.886;2024-01-30T01:52:38;23.20;;;13.52;;
34144;SDS011;69555;53.014;8.886;2024-01-30T01:55:05;25.05;;;13.27;;
34144;SDS011;69555;53.014;8.886;2024-01-30T01:57:31;23.55;;;14.00;;
34144;SDS011;69555;53.014;8.886;2024-01-30T01:59:57;20.83;;;12.80;;
34144;SDS011;69555;53.014;8.886;2024-01-30T02:02:23;25.77;;;14.55;;
34144;SDS011;69555;53.014;8.886;2024-01-30T02:04:50;22.17;;;13.52;;
34144;SDS011;69555;53.014;8.886;2024-01-30T02:07:15;25.50;;;13.98;;
34144;SDS011;69555;53.014;8.886;2024-01-30T02:09:43;19.08;;;12.43;;
34144;SDS011;69555;53.014;8.886;2024-01-30T02:12:10;23.75;;;13.52;;
34144;SDS011;69555;53.014;8.886;2024-01-30T02:14:45;21.48;;;13.85;;
34144;SDS011;69555;53.014;8.886;2024-01-30T02:17:13;20.77;;;13.35;;
34144;SDS011;69555;53.014;8.886;2024-01-30T02:19:39;21.88;;;13.93;;
34144;SDS011;69555;53.014;8.886;2024-01-30T02:22:06;24.83;;;13.18;;
34144;SDS011;69555;53.014;8.886;2024-01-30T02:24:33;21.95;;;12.50;;
34144;SDS011;69555;53.014;8.886;2024-01-30T02:27:00;22.35;;;14.20;;
34144;SDS011;69555;53.014;8.886;2024-01-30T02:29:26;21.48;;;13.73;;
34144;SDS011;69555;53.014;8.886;2024-01-30T02:31:52;20.30;;;13.18;;
34144;SDS011;69555;53.014;8.886;2024-01-30T02:34:19;21.42;;;13.43;;
34144;SDS011;69555;53.014;8.886;2024-01-30T02:36:47;23.48;;;14.00;;
34144;SDS011;69555;53.014;8.886;2024-01-30T02:39:14;23.02;;;14.10;;
34144;SDS011;69555;53.014;8.886;2024-01-30T02:41:39;24.77;;;13.70;;
34144;SDS011;69555;53.014;8.886;2024-01-30T02:44:05;22.10;;;13.73;;
34144;SDS011;69555;53.014;8.886;2024-01-30T02:46:30;20.80;;;13.43;;
34144;SDS011;69555;53.014;8.886;2024-01-30T02:48:56;21.75;;;13.73;;
34144;SDS011;69555;53.014;8.886;2024-01-30T02:51:22;23.17;;;14.50;;
34144;SDS011;69555;53.014;8.886;2024-01-30T02:53:47;22.70;;;13.88;;
34144;SDS011;69555;53.014;8.886;2024-01-30T02:56:12;24.45;;;13.38;;
34144;SDS011;69555;53.014;8.886;2024-01-30T02:58:40;26.08;;;15.57;;
34144;SDS011;69555;53.014;8.886;2024-01-30T03:01:06;28.25;;;14.63;;
34144;SDS011;69555;53.014;8.886;2024-01-30T03:03:33;22.27;;;14.52;;
34144;SDS011;69555;53.014;8.886;2024-01-30T03:06:03;20.60;;;14.32;;
34144;SDS011;69555;53.014;8.886;2024-01-30T03:08:30;25.80;;;13.50;;
34144;SDS011;69555;53.014;8.886;2024-01-30T03:10:56;27.00;;;15.95;;
34144;SDS011;69555;53.014;8.886;2024-01-30T03:13:23;24.65;;;15.93;;
34144;SDS011;69555;53.014;8.886;2024-01-30T03:15:50;23.67;;;14.98;;
34144;SDS011;69555;53.014;8.886;2024-01-30T03:18:16;23.13;;;15.07;;
34144;SDS011;69555;53.014;8.886;2024-01-30T03:20:42;25.08;;;14.80;;
34144;SDS011;69555;53.014;8.886;2024-01-30T03:23:08;23.95;;;14.95;;
34144;SDS011;69555;53.014;8.886;2024-01-30T03:25:33;25.58;;;15.55;;
34144;SDS011;69555;53.014;8.886;2024-01-30T03:27:59;28.42;;;14.85;;
34144;SDS011;69555;53.014;8.886;2024-01-30T03:30:24;22.27;;;13.93;;
34144;SDS011;69555;53.014;8.886;2024-01-30T03:32:49;26.77;;;15.63;;
34144;SDS011;69555;53.014;8.886;2024-01-30T03:35:15;27.98;;;15.48;;
34144;SDS011;69555;53.014;8.886;2024-01-30T03:37:40;28.23;;;16.33;;
34144;SDS011;69555;53.014;8.886;2024-01-30T03:40:06;28.25;;;15.15;;
34144;SDS011;69555;53.014;8.886;2024-01-30T03:42:32;23.25;;;15.15;;
34144;SDS011;69555;53.014;8.886;2024-01-30T03:44:57;25.15;;;16.08;;
34144;SDS011;69555;53.014;8.886;2024-01-30T03:47:23;27.20;;;16.02;;
34144;SDS011;69555;53.014;8.886;2024-01-30T03:49:48;27.75;;;15.63;;
34144;SDS011;69555;53.014;8.886;2024-01-30T03:52:13;26.88;;;15.88;;
34144;SDS011;69555;53.014;8.886;2024-01-30T03:54:39;26.13;;;15.88;;
34144;SDS011;69555;53.014;8.886;2024-01-30T03:57:04;31.02;;;16.13;;
34144;SDS011;69555;53.014;8.886;2024-01-30T03:59:30;29.02;;;17.40;;
34144;SDS011;69555;53.014;8.886;2024-01-30T04:01:57;28.10;;;16.52;;
34144;SDS011;69555;53.014;8.886;2024-01-30T04:04:24;23.30;;;14.77;;
34144;SDS011;69555;53.014;8.886;2024-01-30T04:06:50;23.88;;;17.35;;
34144;SDS011;69555;53.014;8.886;2024-01-30T04:09:16;27.48;;;17.42;;
34144;SDS011;69555;53.014;8.886;2024-01-30T04:11:41;23.70;;;16.55;;
34144;SDS011;69555;53.014;8.886;2024-01-30T04:14:07;22.70;;;16.40;;
34144;SDS011;69555;53.014;8.886;2024-01-30T04:16:33;26.23;;;17.13;;
34144;SDS011;69555;53.014;8.886;2024-01-30T04:18:59;25.95;;;16.58;;
34144;SDS011;69555;53.014;8.886;2024-01-30T04:21:24;26.00;;;16.95;;
34144;SDS011;69555;53.014;8.886;2024-01-30T04:23:51;28.90;;;17.48;;
34144;SDS011;69555;53.014;8.886;2024-01-30T04:26:17;27.02;;;16.35;;
34144;SDS011;69555;53.014;8.886;2024-01-30T04:28:43;27.73;;;16.35;;
34144;SDS011;69555;53.014;8.886;2024-01-30T04:31:09;29.27;;;18.00;;
34144;SDS011;69555;53.014;8.886;2024-01-30T04:33:35;28.20;;;15.98;;
34144;SDS011;69555;53.014;8.886;2024-01-30T04:36:00;30.15;;;16.67;;
34144;SDS011;69555;53.014;8.886;2024-01-30T04:38:26;33.08;;;17.45;;
34144;SDS011;69555;53.014;8.886;2024-01-30T04:40:51;25.13;;;16.60;;
34144;SDS011;69555;53.014;8.886;2024-01-30T04:43:17;27.63;;;17.17;;
34144;SDS011;69555;53.014;8.886;2024-01-30T04:45:44;27.23;;;17.60;;
34144;SDS011;69555;53.014;8.886;2024-01-30T04:48:09;28.50;;;17.42;;
34144;SDS011;69555;53.014;8.886;2024-01-30T04:50:35;34.25;;;18.83;;
34144;SDS011;69555;53.014;8.886;2024-01-30T04:53:01;32.78;;;18.25;;
34144;SDS011;69555;53.014;8.886;2024-01-30T04:55:26;28.40;;;18.17;;
34144;SDS011;69555;53.014;8.886;2024-01-30T04:57:51;28.95;;;18.10;;
34144;SDS011;69555;53.014;8.886;2024-01-30T05:00:17;27.05;;;17.42;;
34144;SDS011;69555;53.014;8.886;2024-01-30T05:02:42;30.33;;;17.70;;
34144;SDS011;69555;53.014;8.886;2024-01-30T05:05:08;31.45;;;17.45;;
34144;SDS011;69555;53.014;8.886;2024-01-30T05:07:33;28.95;;;17.77;;
34144;SDS011;69555;53.014;8.886;2024-01-30T05:09:59;27.52;;;16.55;;
34144;SDS011;69555;53.014;8.886;2024-01-30T05:12:25;29.23;;;17.10;;
34144;SDS011;69555;53.014;8.886;2024-01-30T05:14:50;29.77;;;17.23;;
34144;SDS011;69555;53.014;8.886;2024-01-30T05:17:16;27.80;;;16.90;;
34144;SDS011;69555;53.014;8.886;2024-01-30T05:19:42;32.25;;;17.98;;
34144;SDS011;69555;53.014;8.886;2024-01-30T05:22:08;26.90;;;16.98;;
34144;SDS011;69555;53.014;8.886;2024-01-30T05:24:34;28.38;;;18.33;;
34144;SDS011;69555;53.014;8.886;2024-01-30T05:26:59;27.73;;;18.27;;
34144;SDS011;69555;53.014;8.886;2024-01-30T05:29:25;32.72;;;18.30;;
34144;SDS011;69555;53.014;8.886;2024-01-30T05:31:50;27.85;;;17.90;;
34144;SDS011;69555;53.014;8.886;2024-01-30T05:34:16;30.13;;;17.42;;
34144;SDS011;69555;53.014;8.886;2024-01-30T05:36:41;30.70;;;18.23;;
34144;SDS011;69555;53.014;8.886;2024-01-30T05:39:06;29.17;;;19.10;;
34144;SDS011;69555;53.014;8.886;2024-01-30T05:41:32;28.25;;;18.58;;
34144;SDS011;69555;53.014;8.886;2024-01-30T05:43:57;33.15;;;18.00;;
34144;SDS011;69555;53.014;8.886;2024-01-30T05:46:23;30.77;;;18.70;;
34144;SDS011;69555;53.014;8.886;2024-01-30T05:48:48;27.83;;;18.45;;
34144;SDS011;69555;53.014;8.886;2024-01-30T05:51:14;31.70;;;18.80;;
34144;SDS011;69555;53.014;8.886;2024-01-30T05:53:39;28.88;;;18.38;;
34144;SDS011;69555;53.014;8.886;2024-01-30T05:56:05;32.83;;;19.60;;
34144;SDS011;69555;53.014;8.886;2024-01-30T05:58:30;30.35;;;18.55;;
34144;SDS011;69555;53.014;8.886;2024-01-30T06:00:56;32.10;;;18.92;;
34144;SDS011;69555;53.014;8.886;2024-01-30T06:03:22;28.85;;;17.52;;
34144;SDS011;69555;53.014;8.886;2024-01-30T06:05:47;28.80;;;19.13;;
34144;SDS011;69555;53.014;8.886;2024-01-30T06:08:13;33.20;;;19.05;;
34144;SDS011;69555;53.014;8.886;2024-01-30T06:10:38;32.70;;;19.58;;
34144;SDS011;69555;53.014;8.886;2024-01-30T06:13:04;29.35;;;19.77;;
34144;SDS011;69555;53.014;8.886;2024-01-30T06:15:29;35.95;;;19.20;;
34144;SDS011;69555;53.014;8.886;2024-01-30T06:17:55;28.67;;;18.88;;
34144;SDS011;69555;53.014;8.886;2024-01-30T06:20:20;34.90;;;19.52;;
34144;SDS011;69555;53.014;8.886;2024-01-30T06:22:47;29.05;;;18.00;;
34144;SDS011;69555;53.014;8.886;2024-01-30T06:25:12;27.02;;;18.35;;
34144;SDS011;69555;53.014;8.886;2024-01-30T06:27:38;30.15;;;19.25;;
34144;SDS011;69555;53.014;8.886;2024-01-30T06:30:04;39.40;;;20.27;;
34144;SDS011;69555;53.014;8.886;2024-01-30T06:32:30;29.90;;;18.75;;
34144;SDS011;69555;53.014;8.886;2024-01-30T06:34:59;31.48;;;19.00;;
34144;SDS011;69555;53.014;8.886;2024-01-30T06:37:25;32.83;;;19.02;;
34144;SDS011;69555;53.014;8.886;2024-01-30T06:39:50;31.90;;;19.40;;
34144;SDS011;69555;53.014;8.886;2024-01-30T06:42:17;33.70;;;19.90;;
34144;SDS011;69555;53.014;8.886;2024-01-30T06:44:42;29.95;;;18.48;;
34144;SDS011;69555;53.014;8.886;2024-01-30T06:47:07;31.88;;;20.33;;
34144;SDS011;69555;53.014;8.886;2024-01-30T06:49:33;32.53;;;19.83;;
34144;SDS011;69555;53.014;8.886;2024-01-30T06:51:58;31.35;;;19.33;;
34144;SDS011;69555;53.014;8.886;2024-01-30T06:54:24;28.52;;;18.80;;
34144;SDS011;69555;53.014;8.886;2024-01-30T06:56:49;35.08;;;18.85;;
34144;SDS011;69555;53.014;8.886;2024-01-30T06:59:15;30.17;;;18.70;;
34144;SDS011;69555;53.014;8.886;2024-01-30T07:01:40;30.65;;;18.65;;
34144;SDS011;69555;53.014;8.886;2024-01-30T07:04:05;34.03;;;19.58;;
34144;SDS011;69555;53.014;8.886;2024-01-30T07:06:31;39.30;;;20.38;;
34144;SDS011;69555;53.014;8.886;2024-01-30T07:08:56;36.88;;;20.38;;
34144;SDS011;69555;53.014;8.886;2024-01-30T07:11:22;38.05;;;20.60;;
34144;SDS011;69555;53.014;8.886;2024-01-30T07:13:49;33.95;;;19.50;;
34144;SDS011;69555;53.014;8.886;2024-01-30T07:16:15;31.45;;;19.40;;
34144;SDS011;69555;53.014;8.886;2024-01-30T07:18:41;39.72;;;20.70;;
34144;SDS011;69555;53.014;8.886;2024-01-30T07:21:06;36.20;;;19.92;;
34144;SDS011;69555;53.014;8.886;2024-01-30T07:23:32;36.20;;;21.48;;
34144;SDS011;69555;53.014;8.886;2024-01-30T07:25:59;29.90;;;19.77;;
34144;SDS011;69555;53.014;8.886;2024-01-30T07:28:24;34.28;;;19.80;;
34144;SDS011;69555;53.014;8.886;2024-01-30T07:30:50;32.50;;;20.15;;
34144;SDS011;69555;53.014;8.886;2024-01-30T07:33:15;31.02;;;18.98;;
34144;SDS011;69555;53.014;8.886;2024-01-30T07:35:41;42.95;;;20.60;;
34144;SDS011;69555;53.014;8.886;2024-01-30T07:38:06;34.25;;;20.63;;
34144;SDS011;69555;53.014;8.886;2024-01-30T07:40:31;31.00;;;19.98;;
34144;SDS011;69555;53.014;8.886;2024-01-30T07:42:58;31.25;;;18.58;;
34144;SDS011;69555;53.014;8.886;2024-01-30T07:45:23;32.58;;;19.63;;
34144;SDS011;69555;53.014;8.886;2024-01-30T07:47:50;30.42;;;18.60;;
34144;SDS011;69555;53.014;8.886;2024-01-30T07:50:16;32.17;;;19.83;;
34144;SDS011;69555;53.014;8.886;2024-01-30T07:52:42;29.52;;;18.10;;
34144;SDS011;69555;53.014;8.886;2024-01-30T07:55:08;33.42;;;18.02;;
34144;SDS011;69555;53.014;8.886;2024-01-30T07:57:33;29.90;;;18.48;;
34144;SDS011;69555;53.014;8.886;2024-01-30T07:59:59;29.45;;;16.92;;
34144;SDS011;69555;53.014;8.886;2024-01-30T08:02:25;34.05;;;18.10;;
34144;SDS011;69555;53.014;8.886;2024-01-30T08:04:50;31.13;;;19.55;;
34144;SDS011;69555;53.014;8.886;2024-01-30T08:07:16;37.00;;;18.00;;
34144;SDS011;69555;53.014;8.886;2024-01-30T08:09:42;33.65;;;18.63;;
34144;SDS011;69555;53.014;8.886;2024-01-30T08:12:08;30.67;;;17.23;;
34144;SDS011;69555;53.014;8.886;2024-01-30T08:14:34;27.38;;;17.17;;
34144;SDS011;69555;53.014;8.886;2024-01-30T08:16:59;34.83;;;18.63;;
34144;SDS011;69555;53.014;8.886;2024-01-30T08:19:24;29.63;;;17.65;;
34144;SDS011;69555;53.014;8.886;2024-01-30T08:21:50;36.22;;;18.40;;
34144;SDS011;69555;53.014;8.886;2024-01-30T08:24:15;32.45;;;18.02;;
34144;SDS011;69555;53.014;8.886;2024-01-30T08:26:41;34.30;;;18.60;;
34144;SDS011;69555;53.014;8.886;2024-01-30T08:29:06;29.42;;;17.90;;
34144;SDS011;69555;53.014;8.886;2024-01-30T08:31:31;28.20;;;16.52;;
34144;SDS011;69555;53.014;8.886;2024-01-30T08:33:57;29.63;;;17.08;;
34144;SDS011;69555;53.014;8.886;2024-01-30T08:36:22;27.55;;;16.52;;
34144;SDS011;69555;53.014;8.886;2024-01-30T08:38:48;27.80;;;17.05;;
34144;SDS011;69555;53.014;8.886;2024-01-30T08:41:13;26.98;;;17.70;;
34144;SDS011;69555;53.014;8.886;2024-01-30T08:43:38;28.20;;;18.17;;
34144;SDS011;69555;53.014;8.886;2024-01-30T08:46:04;27.60;;;16.33;;
34144;SDS011;69555;53.014;8.886;2024-01-30T08:48:29;29.35;;;17.00;;
34144;SDS011;69555;53.014;8.886;2024-01-30T08:50:55;26.15;;;15.85;;
34144;SDS011;69555;53.014;8.886;2024-01-30T08:53:20;29.95;;;16.92;;
34144;SDS011;69555;53.014;8.886;2024-01-30T08:55:46;26.17;;;16.88;;
34144;SDS011;69555;53.014;8.886;2024-01-30T08:58:11;32.38;;;16.52;;
34144;SDS011;69555;53.014;8.886;2024-01-30T09:00:37;26.63;;;17.00;;
34144;SDS011;69555;53.014;8.886;2024-01-30T09:03:03;28.88;;;18.05;;
34144;SDS011;69555;53.014;8.886;2024-01-30T09:05:29;22.70;;;15.57;;
34144;SDS011;69555;53.014;8.886;2024-01-30T09:07:54;25.95;;;15.23;;
34144;SDS011;69555;53.014;8.886;2024-01-30T09:10:19;31.88;;;16.20;;
34144;SDS011;69555;53.014;8.886;2024-01-30T09:12:45;29.92;;;15.20;;
34144;SDS011;69555;53.014;8.886;2024-01-30T09:15:11;28.10;;;15.73;;
34144;SDS011;69555;53.014;8.886;2024-01-30T09:17:36;32.17;;;17.65;;
34144;SDS011;69555;53.014;8.886;2024-01-30T09:20:02;26.55;;;15.88;;
34144;SDS011;69555;53.014;8.886;2024-01-30T09:22:27;29.55;;;15.80;;
34144;SDS011;69555;53.014;8.886;2024-01-30T09:24:53;29.60;;;15.43;;
34144;SDS011;69555;53.014;8.886;2024-01-30T09:27:18;25.13;;;14.77;;
34144;SDS011;69555;53.014;8.886;2024-01-30T09:29:44;22.05;;;14.70;;
34144;SDS011;69555;53.014;8.886;2024-01-30T09:32:09;23.58;;;13.60;;
34144;SDS011;69555;53.014;8.886;2024-01-30T09:34:34;23.42;;;15.18;;
34144;SDS011;69555;53.014;8.886;2024-01-30T09:37:00;23.42;;;14.43;;
34144;SDS011;69555;53.014;8.886;2024-01-30T09:39:26;27.67;;;15.63;;
34144;SDS011;69555;53.014;8.886;2024-01-30T09:41:55;31.83;;;17.58;;
34144;SDS011;69555;53.014;8.886;2024-01-30T09:44:28;20.60;;;13.45;;
34144;SDS011;69555;53.014;8.886;2024-01-30T09:46:54;24.75;;;14.15;;
34144;SDS011;69555;53.014;8.886;2024-01-30T09:49:20;31.73;;;14.75;;
34144;SDS011;69555;53.014;8.886;2024-01-30T09:51:48;24.67;;;13.65;;
34144;SDS011;69555;53.014;8.886;2024-01-30T09:54:15;25.80;;;15.30;;
34144;SDS011;69555;53.014;8.886;2024-01-30T09:56:41;22.92;;;14.60;;
34144;SDS011;69555;53.014;8.886;2024-01-30T09:59:07;24.20;;;14.65;;
34144;SDS011;69555;53.014;8.886;2024-01-30T10:01:34;21.98;;;14.38;;
34144;SDS011;69555;53.014;8.886;2024-01-30T10:04:00;25.83;;;14.75;;
34144;SDS011;69555;53.014;8.886;2024-01-30T10:06:25;22.52;;;13.13;;
34144;SDS011;69555;53.014;8.886;2024-01-30T10:08:52;27.08;;;14.32;;
34144;SDS011;69555;53.014;8.886;2024-01-30T10:11:18;23.98;;;13.60;;
34144;SDS011;69555;53.014;8.886;2024-01-30T10:13:43;22.38;;;14.63;;
34144;SDS011;69555;53.014;8.886;2024-01-30T10:16:08;22.65;;;13.32;;
34144;SDS011;69555;53.014;8.886;2024-01-30T10:18:34;25.30;;;13.65;;
34144;SDS011;69555;53.014;8.886;2024-01-30T10:20:59;20.70;;;12.68;;
34144;SDS011;69555;53.014;8.886;2024-01-30T10:23:25;18.77;;;12.15;;
34144;SDS011;69555;53.014;8.886;2024-01-30T10:25:51;17.00;;;11.48;;
34144;SDS011;69555;53.014;8.886;2024-01-30T10:28:17;16.23;;;11.02;;
34144;SDS011;69555;53.014;8.886;2024-01-30T10:30:42;20.42;;;12.10;;
34144;SDS011;69555;53.014;8.886;2024-01-30T10:33:08;16.58;;;12.13;;
34144;SDS011;69555;53.014;8.886;2024-01-30T10:35:33;19.35;;;11.50;;
34144;SDS011;69555;53.014;8.886;2024-01-30T10:37:59;20.05;;;11.65;;
34144;SDS011;69555;53.014;8.886;2024-01-30T10:40:27;21.00;;;12.27;;
34144;SDS011;69555;53.014;8.886;2024-01-30T10:42:53;15.77;;;10.13;;
34144;SDS011;69555;53.014;8.886;2024-01-30T10:45:20;17.27;;;11.18;;
34144;SDS011;69555;53.014;8.886;2024-01-30T10:47:50;20.08;;;11.38;;
34144;SDS011;69555;53.014;8.886;2024-01-30T10:50:19;20.10;;;12.15;;
34144;SDS011;69555;53.014;8.886;2024-01-30T10:52:45;19.30;;;11.85;;
34144;SDS011;69555;53.014;8.886;2024-01-30T10:55:13;20.90;;;11.38;;
34144;SDS011;69555;53.014;8.886;2024-01-30T10:57:40;27.00;;;11.10;;
34144;SDS011;69555;53.014;8.886;2024-01-30T11:00:10;20.20;;;10.43;;
34144;SDS011;69555;53.014;8.886;2024-01-30T11:02:40;17.45;;;10.70;;
34144;SDS011;69555;53.014;8.886;2024-01-30T11:05:08;15.05;;;10.50;;
34144;SDS011;69555;53.014;8.886;2024-01-30T11:07:35;17.35;;;10.30;;
34144;SDS011;69555;53.014;8.886;2024-01-30T11:10:06;15.60;;;10.30;;
34144;SDS011;69555;53.014;8.886;2024-01-30T11:12:39;14.52;;;9.90;;
34144;SDS011;69555;53.014;8.886;2024-01-30T11:15:14;18.35;;;11.00;;
34144;SDS011;69555;53.014;8.886;2024-01-30T11:17:42;18.05;;;10.80;;
34144;SDS011;69555;53.014;8.886;2024-01-30T11:20:14;18.17;;;10.23;;
34144;SDS011;69555;53.014;8.886;2024-01-30T11:22:42;19.52;;;11.40;;
34144;SDS011;69555;53.014;8.886;2024-01-30T11:25:16;16.35;;;10.38;;
34144;SDS011;69555;53.014;8.886;2024-01-30T11:27:45;15.13;;;9.65;;
34144;SDS011;69555;53.014;8.886;2024-01-30T11:30:20;19.48;;;10.82;;
34144;SDS011;69555;53.014;8.886;2024-01-30T11:35:36;16.75;;;9.80;;
34144;SDS011;69555;53.014;8.886;2024-01-30T11:38:04;13.48;;;8.93;;
34144;SDS011;69555;53.014;8.886;2024-01-30T11:40:31;23.98;;;11.20;;
34144;SDS011;69555;53.014;8.886;2024-01-30T11:42:58;13.48;;;9.40;;
34144;SDS011;69555;53.014;8.886;2024-01-30T11:45:25;16.13;;;10.40;;
34144;SDS011;69555;53.014;8.886;2024-01-30T11:47:51;17.63;;;10.77;;
34144;SDS011;69555;53.014;8.886;2024-01-30T11:50:17;17.17;;;9.45;;
34144;SDS011;69555;53.014;8.886;2024-01-30T11:52:42;18.55;;;10.45;;
34144;SDS011;69555;53.014;8.886;2024-01-30T11:55:08;17.95;;;10.55;;
34144;SDS011;69555;53.014;8.886;2024-01-30T11:57:35;17.08;;;9.98;;
34144;SDS011;69555;53.014;8.886;2024-01-30T12:00:02;22.10;;;10.65;;
34144;SDS011;69555;53.014;8.886;2024-01-30T12:02:41;17.25;;;10.07;;
34144;SDS011;69555;53.014;8.886;2024-01-30T12:05:07;19.05;;;10.20;;
34144;SDS011;69555;53.014;8.886;2024-01-30T12:07:33;18.17;;;10.07;;
34144;SDS011;69555;53.014;8.886;2024-01-30T12:09:59;15.80;;;9.35;;
34144;SDS011;69555;53.014;8.886;2024-01-30T12:12:25;17.85;;;10.13;;
34144;SDS011;69555;53.014;8.886;2024-01-30T12:14:51;19.52;;;11.60;;
34144;SDS011;69555;53.014;8.886;2024-01-30T12:17:51;16.02;;;8.73;;
34144;SDS011;69555;53.014;8.886;2024-01-30T12:22:37;19.33;;;10.40;;
34144;SDS011;69555;53.014;8.886;2024-01-30T12:25:07;24.77;;;10.52;;
34144;SDS011;69555;53.014;8.886;2024-01-30T12:27:34;13.65;;;9.20;;
34144;SDS011;69555;53.014;8.886;2024-01-30T12:29:59;16.60;;;9.50;;
34144;SDS011;69555;53.014;8.886;2024-01-30T12:32:25;17.92;;;10.55;;
34144;SDS011;69555;53.014;8.886;2024-01-30T12:34:50;20.33;;;10.40;;
34144;SDS011;69555;53.014;8.886;2024-01-30T12:37:19;15.73;;;9.95;;
34144;SDS011;69555;53.014;8.886;2024-01-30T12:39:47;18.90;;;10.43;;
34144;SDS011;69555;53.014;8.886;2024-01-30T12:42:13;17.42;;;9.93;;
34144;SDS011;69555;53.014;8.886;2024-01-30T12:44:39;19.20;;;10.68;;
34144;SDS011;69555;53.014;8.886;2024-01-30T12:47:04;17.38;;;9.23;;
34144;SDS011;69555;53.014;8.886;2024-01-30T12:49:30;17.95;;;10.63;;
34144;SDS011;69555;53.014;8.886;2024-01-30T12:51:55;17.25;;;10.38;;
34144;SDS011;69555;53.014;8.886;2024-01-30T12:54:22;17.98;;;9.70;;
34144;SDS011;69555;53.014;8.886;2024-01-30T12:56:48;21.08;;;10.50;;
34144;SDS011;69555;53.014;8.886;2024-01-30T12:59:13;15.15;;;9.55;;
34144;SDS011;69555;53.014;8.886;2024-01-30T13:01:39;18.25;;;10.18;;
34144;SDS011;69555;53.014;8.886;2024-01-30T13:04:04;18.63;;;9.57;;
34144;SDS011;69555;53.014;8.886;2024-01-30T13:06:29;17.10;;;9.45;;
34144;SDS011;69555;53.014;8.886;2024-01-30T13:08:55;19.65;;;9.48;;
34144;SDS011;69555;53.014;8.886;2024-01-30T13:11:20;19.40;;;9.90;;
34144;SDS011;69555;53.014;8.886;2024-01-30T13:13:46;21.23;;;10.48;;
34144;SDS011;69555;53.014;8.886;2024-01-30T13:16:12;16.48;;;8.70;;
34144;SDS011;69555;53.014;8.886;2024-01-30T13:18:37;17.50;;;10.13;;
34144;SDS011;69555;53.014;8.886;2024-01-30T13:21:02;20.83;;;9.23;;
34144;SDS011;69555;53.014;8.886;2024-01-30T13:23:28;16.05;;;9.40;;
34144;SDS011;69555;53.014;8.886;2024-01-30T13:25:54;18.70;;;10.48;;
34144;SDS011;69555;53.014;8.886;2024-01-30T13:28:22;21.38;;;12.15;;
34144;SDS011;69555;53.014;8.886;2024-01-30T13:30:48;21.23;;;10.85;;
34144;SDS011;69555;53.014;8.886;2024-01-30T13:33:13;16.02;;;9.77;;
34144;SDS011;69555;53.014;8.886;2024-01-30T13:35:39;19.05;;;10.43;;
34144;SDS011;69555;53.014;8.886;2024-01-30T13:38:04;18.63;;;10.48;;
34144;SDS011;69555;53.014;8.886;2024-01-30T13:40:30;23.33;;;9.82;;
34144;SDS011;69555;53.014;8.886;2024-01-30T13:42:55;16.17;;;9.98;;
34144;SDS011;69555;53.014;8.886;2024-01-30T13:45:21;18.10;;;10.18;;
34144;SDS011;69555;53.014;8.886;2024-01-30T13:47:46;19.48;;;11.50;;
34144;SDS011;69555;53.014;8.886;2024-01-30T13:50:11;16.90;;;9.75;;
34144;SDS011;69555;53.014;8.886;2024-01-30T13:52:40;21.48;;;10.75;;
34144;SDS011;69555;53.014;8.886;2024-01-30T13:55:06;18.98;;;10.63;;
34144;SDS011;69555;53.014;8.886;2024-01-30T13:57:31;17.58;;;9.88;;
34144;SDS011;69555;53.014;8.886;2024-01-30T14:00:00;15.80;;;10.23;;
34144;SDS011;69555;53.014;8.886;2024-01-30T14:02:25;17.02;;;9.60;;
34144;SDS011;69555;53.014;8.886;2024-01-30T14:04:51;18.40;;;11.30;;
34144;SDS011;69555;53.014;8.886;2024-01-30T14:07:16;12.55;;;9.52;;
34144;SDS011;69555;53.014;8.886;2024-01-30T14:09:43;21.17;;;11.75;;
34144;SDS011;69555;53.014;8.886;2024-01-30T14:12:09;20.02;;;10.90;;
34144;SDS011;69555;53.014;8.886;2024-01-30T14:14:34;17.50;;;9.25;;
34144;SDS011;69555;53.014;8.886;2024-01-30T14:17:00;23.50;;;10.90;;
34144;SDS011;69555;53.014;8.886;2024-01-30T14:19:26;18.60;;;10.93;;
34144;SDS011;69555;53.014;8.886;2024-01-30T14:21:51;21.83;;;11.98;;